Time;durP1;ratioP1;P1;durP2;ratioP2;P2;SDS_P1;SDS_P2;PMS_P1;PMS_P2;Temp;Humidity;BMP_temperature;BMP_pressure;BME280_temperature;BME280_humidity;BME280_pressure;Samples;Min_cycle;Max_cycle;Signal;HPM_P1;HPM_P2
2022/04/10 00:00:59;;;;;;;;;7.00;6.00;;;;;5.57;61.88;101238.72;5016949;28;45471;-75
2022/04/10 00:03:25;;;;;;;;;6.25;6.25;;;;;5.60;62.18;101258.00;5017200;28;45475;-77
2022/04/10 00:05:51;;;;;;;;;7.00;7.00;;;;;5.59;61.75;101255.38;5002370;28;45509;-80
2022/04/10 00:08:23;;;;;;;;;9.75;6.00;;;;;5.58;62.52;101258.84;5019699;28;45415;-81
2022/04/10 00:10:51;;;;;;;;;7.00;6.00;;;;;5.54;62.81;101252.66;5000296;28;45432;-80
2022/04/10 00:13:17;;;;;;;;;9.75;9.75;;;;;5.53;62.67;101245.69;5018829;28;45470;-80
2022/04/10 00:15:43;;;;;;;;;6.25;6.25;;;;;5.43;63.33;101239.44;5017439;28;45310;-80
2022/04/10 00:18:11;;;;;;;;;6.75;6.75;;;;;5.48;63.03;101243.00;5016802;28;45460;-76
2022/04/10 00:20:36;;;;;;;;;5.00;5.00;;;;;5.26;63.17;101209.53;4999055;28;45744;-76
2022/04/10 00:23:04;;;;;;;;;10.50;9.25;;;;;5.34;62.96;101214.00;5016995;28;45534;-75
2022/04/10 00:25:29;;;;;;;;;12.50;9.75;;;;;5.40;62.94;101238.53;4999867;28;45458;-82
2022/04/10 00:27:54;;;;;;;;;3.75;1.00;;;;;5.35;63.37;101233.22;5018437;28;45483;-77
2022/04/10 00:30:20;;;;;;;;;9.00;9.00;;;;;5.34;63.87;101239.31;5017181;28;45485;-79
2022/04/10 00:32:46;;;;;;;;;7.00;7.00;;;;;5.32;63.63;101236.69;5032450;28;45439;-77
2022/04/10 00:35:12;;;;;;;;;9.00;9.00;;;;;5.25;63.77;101234.84;5019093;28;45555;-79
2022/04/10 00:37:39;;;;;;;;;9.50;7.00;;;;;5.16;64.17;101212.03;5036110;28;46231;-79
2022/04/10 00:40:07;;;;;;;;;12.00;10.00;;;;;5.24;64.59;101233.09;5020661;28;45458;-80
2022/04/10 00:42:38;;;;;;;;;12.00;9.75;;;;;5.25;64.63;101239.22;5019468;28;45345;-79
2022/04/10 00:45:05;;;;;;;;;6.50;4.50;;;;;5.20;64.50;101231.28;5019655;28;45402;-80
2022/04/10 00:47:31;;;;;;;;;10.00;9.00;;;;;5.11;65.22;101225.94;5018389;28;46187;-76
2022/04/10 00:49:59;;;;;;;;;16.00;10.50;;;;;5.20;64.72;101241.78;5016410;28;45449;-76
2022/04/10 00:52:29;;;;;;;;;9.00;9.00;;;;;5.09;65.35;101214.56;5016739;28;45422;-76
2022/04/10 00:54:55;;;;;;;;;9.50;8.50;;;;;5.17;65.53;101244.38;5016127;28;45381;-76
2022/04/10 00:57:25;;;;;;;;;13.25;10.50;;;;;5.13;65.61;101240.84;5016262;28;45393;-75
2022/04/10 00:59:54;;;;;;;;;8.00;6.50;;;;;5.07;65.64;101230.28;4999747;28;45416;-77
2022/04/10 01:02:20;;;;;;;;;11.50;9.75;;;;;5.00;65.44;101222.31;5017492;28;45320;-78
2022/04/10 01:04:48;;;;;;;;;9.50;9.00;;;;;5.09;64.88;101239.03;5017878;28;45416;-80
2022/04/10 01:07:17;;;;;;;;;9.00;7.00;;;;;5.06;65.15;101244.22;5018165;28;46011;-75
2022/04/10 01:09:43;;;;;;;;;12.75;11.00;;;;;5.06;65.17;101244.22;5000664;28;45500;-75
2022/04/10 01:12:11;;;;;;;;;6.50;6.50;;;;;5.04;65.04;101240.72;5000354;28;45437;-75
2022/04/10 01:14:38;;;;;;;;;9.25;9.00;;;;;4.92;65.46;101224.81;5017031;28;45504;-76
2022/04/10 01:17:11;;;;;;;;;9.50;9.50;;;;;5.03;64.83;101238.06;5016646;28;46191;-76
2022/04/10 01:19:43;;;;;;;;;9.50;7.00;;;;;4.91;65.20;101226.56;5016129;28;45405;-75
2022/04/10 01:22:31;;;;;;;;;9.00;9.00;;;;;4.99;65.15;101239.75;5015482;28;45569;-77
2022/04/10 01:24:58;;;;;;;;;9.75;7.00;;;;;4.97;65.51;101244.09;5016073;28;45379;-75
2022/04/10 01:27:23;;;;;;;;;8.00;7.50;;;;;4.87;65.34;101223.88;5015694;28;45467;-77
2022/04/10 01:29:49;;;;;;;;;8.50;7.00;;;;;4.72;65.27;101204.47;5015378;28;45492;-76
2022/04/10 01:32:14;;;;;;;;;9.25;9.25;;;;;4.87;65.18;101223.88;5016051;28;45419;-76
2022/04/10 01:34:41;;;;;;;;;12.00;10.00;;;;;4.87;65.40;101234.34;5015944;28;45332;-75
2022/04/10 01:37:09;;;;;;;;;6.75;6.25;;;;;4.86;65.98;101240.44;5001590;28;47533;-75
2022/04/10 01:39:34;;;;;;;;;9.75;9.75;;;;;4.84;65.98;101234.31;5018343;28;45348;-75
2022/04/10 01:42:00;;;;;;;;;10.75;7.50;;;;;4.82;65.71;101238.66;5015404;28;45433;-80
2022/04/10 01:44:25;;;;;;;;;8.25;8.00;;;;;4.78;65.97;101238.63;5016221;28;45589;-76
2022/04/10 01:46:50;;;;;;;;;10.00;10.00;;;;;4.75;66.46;101230.72;5015409;28;45360;-77
2022/04/10 01:49:16;;;;;;;;;12.00;9.00;;;;;4.72;65.47;101227.16;5016186;28;45266;-75
2022/04/10 01:51:41;;;;;;;;;7.00;7.00;;;;;4.69;65.62;101228.00;5015459;28;45285;-78
2022/04/10 01:54:06;;;;;;;;;8.00;6.50;;;;;4.70;65.68;101226.25;5016000;28;45423;-80
2022/04/10 01:56:32;;;;;;;;;8.50;7.50;;;;;4.67;65.69;101219.22;5015719;28;46118;-80
2022/04/10 01:58:57;;;;;;;;;13.25;9.00;;;;;4.52;65.85;101195.44;4998187;28;45373;-80
2022/04/10 02:01:23;;;;;;;;;9.50;8.50;;;;;4.57;66.25;101210.38;5015682;28;45911;-78
2022/04/10 02:03:52;;;;;;;;;9.00;9.00;;;;;4.61;65.58;101219.16;5016234;28;45554;-79
2022/04/10 02:06:19;;;;;;;;;5.50;5.50;;;;;4.57;66.28;101210.38;5001033;28;48216;-80
2022/04/10 02:08:44;;;;;;;;;8.00;8.00;;;;;4.58;65.85;101219.09;5005887;28;45555;-80
2022/04/10 02:11:28;;;;;;;;;10.25;9.00;;;;;4.57;66.03;101219.94;5016733;28;45383;-80
2022/04/10 02:13:53;;;;;;;;;11.00;9.00;;;;;4.44;65.94;101208.41;5015525;28;45565;-81
2022/04/10 02:16:19;;;;;;;;;8.50;8.50;;;;;4.50;65.55;101218.13;5015447;28;45424;-79
2022/04/10 02:18:46;;;;;;;;;6.00;6.00;;;;;4.45;65.43;101213.69;5018091;28;45589;-81
2022/04/10 02:21:12;;;;;;;;;9.50;8.00;;;;;4.38;65.71;101216.19;4997170;28;45505;-80
2022/04/10 02:23:37;;;;;;;;;8.50;6.25;;;;;4.39;65.97;101226.69;5015299;28;45674;-80
2022/04/10 02:26:05;;;;;;;;;5.75;4.50;;;;;4.40;65.69;101225.84;5015669;28;46317;-77
2022/04/10 02:28:30;;;;;;;;;6.00;4.00;;;;;4.33;65.48;101209.97;5010455;28;45478;-76
2022/04/10 02:30:56;;;;;;;;;6.25;6.25;;;;;4.35;65.39;101221.38;5035116;28;45336;-76
2022/04/10 02:33:22;;;;;;;;;3.75;3.75;;;;;4.34;65.55;101222.22;5037805;28;45339;-76
2022/04/10 02:35:47;;;;;;;;;13.00;7.00;;;;;4.33;65.60;101223.97;5036224;28;45395;-79
2022/04/10 02:38:13;;;;;;;;;7.50;6.25;;;;;4.29;65.86;101219.53;5041450;28;45513;-80
2022/04/10 02:40:38;;;;;;;;;9.00;6.50;;;;;4.30;65.68;101229.16;5051011;28;45446;-81
2022/04/10 02:43:03;;;;;;;;;7.50;7.50;;;;;4.23;65.52;101214.19;5016471;28;45316;-80
2022/04/10 02:45:29;;;;;;;;;6.00;3.50;;;;;4.27;65.74;101229.97;5015983;28;45434;-79
2022/04/10 02:47:54;;;;;;;;;7.50;4.00;;;;;4.22;65.68;101226.41;5014387;28;45452;-80
2022/04/10 02:50:20;;;;;;;;;4.00;3.00;;;;;4.25;65.50;101225.56;5015159;28;45467;-76
2022/04/10 02:52:45;;;;;;;;;9.75;8.00;;;;;4.24;65.85;101229.06;5014044;28;45444;-76
2022/04/10 02:55:11;;;;;;;;;6.75;5.50;;;;;4.23;65.92;101224.66;5014409;28;45387;-77
2022/04/10 02:57:37;;;;;;;;;4.00;4.00;;;;;4.20;66.18;101228.09;5015137;28;45427;-76
2022/04/10 03:00:04;;;;;;;;;6.00;6.00;;;;;4.19;66.28;101228.09;5014884;28;45333;-76
2022/04/10 03:02:29;;;;;;;;;5.25;4.50;;;;;4.16;66.16;101221.09;5015881;28;45420;-76
2022/04/10 03:04:54;;;;;;;;;6.00;4.50;;;;;4.15;66.61;101224.53;5014554;28;45476;-76
2022/04/10 03:07:20;;;;;;;;;6.25;4.50;;;;;4.11;66.06;101232.31;5014751;28;45462;-80
2022/04/10 03:09:45;;;;;;;;;9.50;5.50;;;;;4.09;66.18;101220.06;5023275;28;45376;-80
2022/04/10 03:12:11;;;;;;;;;6.50;4.50;;;;;4.08;66.34;101218.34;5016131;28;45516;-80
2022/04/10 03:14:37;;;;;;;;;6.75;6.50;;;;;4.07;66.11;101227.03;5014607;28;45570;-80
2022/04/10 03:17:02;;;;;;;;;4.50;4.50;;;;;4.04;66.12;101237.44;5015128;28;45572;-79
2022/04/10 03:19:28;;;;;;;;;6.00;5.50;;;;;4.05;66.39;101241.84;5014948;28;45519;-80
2022/04/10 03:21:54;;;;;;;;;6.00;6.00;;;;;3.99;66.76;101223.38;5014931;28;45417;-81
2022/04/10 03:24:19;;;;;;;;;6.50;6.50;;;;;3.99;66.95;101228.63;5015103;28;45867;-80
2022/04/10 03:26:44;;;;;;;;;9.00;7.50;;;;;4.00;66.90;101243.47;5014925;28;45390;-80
2022/04/10 03:29:12;;;;;;;;;9.25;6.50;;;;;3.98;67.45;101242.56;5016532;28;45499;-80
2022/04/10 03:31:37;;;;;;;;;8.50;5.00;;;;;3.97;67.54;101246.03;4998450;28;45364;-79
2022/04/10 03:34:03;;;;;;;;;6.00;6.00;;;;;3.95;67.02;101236.38;5016272;28;46075;-80
2022/04/10 03:36:28;;;;;;;;;7.50;4.50;;;;;3.93;67.41;101241.59;5018155;28;45390;-80
2022/04/10 03:38:53;;;;;;;;;5.50;4.50;;;;;3.90;66.78;101236.31;5018788;28;45411;-80
2022/04/10 03:41:18;;;;;;;;;6.00;6.00;;;;;3.86;67.67;101242.34;5019508;28;50654;-79
2022/04/10 03:43:44;;;;;;;;;9.00;6.00;;;;;3.89;67.83;101247.66;5022961;28;45447;-79
2022/04/10 03:46:09;;;;;;;;;10.00;8.50;;;;;3.86;67.98;101242.34;5026263;28;45520;-79
2022/04/10 03:48:34;;;;;;;;;10.00;8.50;;;;;3.84;68.63;101246.66;5024100;28;45451;-79
2022/04/10 03:51:00;;;;;;;;;9.75;7.00;;;;;3.80;69.14;101247.47;5025321;28;45360;-79
2022/04/10 03:53:25;;;;;;;;;14.00;12.00;;;;;3.72;69.20;101240.38;5034948;28;46769;-80
2022/04/10 03:55:51;;;;;;;;;12.25;10.00;;;;;3.72;69.47;101239.50;5017559;28;45433;-80
2022/04/10 03:58:16;;;;;;;;;13.50;11.00;;;;;3.67;70.40;101236.75;5018357;28;45506;-78
2022/04/10 04:00:42;;;;;;;;;19.00;9.00;;;;;3.61;70.32;101225.31;5017682;28;45527;-80
2022/04/10 04:03:07;;;;;;;;;13.50;12.50;;;;;3.64;70.35;101241.94;4999186;28;46098;-79
2022/04/10 04:05:32;;;;;;;;;10.00;10.00;;;;;3.62;70.63;101243.66;5018676;28;45398;-79
2022/04/10 04:07:58;;;;;;;;;17.50;13.50;;;;;3.63;71.15;101250.66;5023705;28;45690;-80
2022/04/10 04:10:24;;;;;;;;;11.25;9.50;;;;;3.52;71.14;101231.25;5004474;28;45373;-79
2022/04/10 04:12:49;;;;;;;;;14.00;14.00;;;;;3.58;71.56;101241.81;5003495;28;46935;-80
2022/04/10 04:15:15;;;;;;;;;19.00;16.75;;;;;3.46;71.60;101223.28;5019754;28;45390;-81
2022/04/10 04:17:40;;;;;;;;;9.75;9.75;;;;;3.48;71.42;101238.16;5019130;28;45321;-79
2022/04/10 04:20:07;;;;;;;;;20.00;15.75;;;;;3.50;72.03;101232.97;5018575;28;45562;-79
2022/04/10 04:22:36;;;;;;;;;13.00;12.00;;;;;3.47;71.84;101238.13;5017007;28;45431;-79
2022/04/10 04:25:03;;;;;;;;;12.75;11.50;;;;;3.43;71.36;101241.53;5017993;28;45531;-79
2022/04/10 04:27:28;;;;;;;;;14.50;12.00;;;;;3.41;71.24;101244.09;5019629;28;45520;-79
2022/04/10 04:29:54;;;;;;;;;15.50;13.00;;;;;3.37;71.36;101252.72;5017445;28;45323;-79
2022/04/10 04:32:19;;;;;;;;;9.75;9.50;;;;;3.38;70.36;101251.88;4998934;28;45566;-78
2022/04/10 04:34:47;;;;;;;;;9.00;9.00;;;;;3.35;70.51;101251.81;4999183;28;45454;-80
2022/04/10 04:37:12;;;;;;;;;11.75;11.00;;;;;3.36;70.41;101257.09;5017110;28;45467;-78
2022/04/10 04:39:38;;;;;;;;;8.50;8.50;;;;;3.36;70.43;101259.69;5000815;28;45424;-79
2022/04/10 04:42:04;;;;;;;;;18.25;12.00;;;;;3.31;70.66;101256.13;5023242;28;45652;-80
2022/04/10 04:44:32;;;;;;;;;9.25;9.00;;;;;3.33;70.87;101264.00;5020211;28;45867;-76
2022/04/10 04:46:58;;;;;;;;;13.00;11.00;;;;;3.36;70.52;101270.16;5016641;28;45452;-75
2022/04/10 04:49:24;;;;;;;;;7.50;6.00;;;;;3.36;69.91;101271.91;5016396;28;45678;-77
2022/04/10 04:51:50;;;;;;;;;11.00;11.00;;;;;3.30;71.36;101272.63;5016181;28;45415;-80
2022/04/10 04:54:15;;;;;;;;;15.25;12.00;;;;;3.35;71.79;101278.84;5018429;28;45265;-79
2022/04/10 04:56:40;;;;;;;;;10.00;9.00;;;;;3.35;71.53;101280.56;5017127;28;45369;-79
2022/04/10 04:59:06;;;;;;;;;12.00;9.00;;;;;3.34;71.29;101284.03;5016699;28;45383;-79
2022/04/10 05:01:31;;;;;;;;;14.00;10.50;;;;;3.35;71.02;101286.66;5015992;28;46339;-78
2022/04/10 05:03:57;;;;;;;;;11.50;7.00;;;;;3.36;71.39;101287.56;5016774;28;45384;-79
2022/04/10 05:06:22;;;;;;;;;6.25;6.25;;;;;3.31;71.48;101279.66;4999129;28;45491;-79
2022/04/10 05:08:47;;;;;;;;;17.00;11.50;;;;;3.35;71.87;101291.91;5016642;28;45389;-80
2022/04/10 05:11:14;;;;;;;;;8.00;7.50;;;;;3.31;70.99;101283.97;5017697;28;45859;-79
2022/04/10 05:13:40;;;;;;;;;15.25;10.50;;;;;3.33;71.18;101275.31;5021743;28;45439;-79
2022/04/10 05:16:06;;;;;;;;;9.50;9.50;;;;;3.38;71.66;101291.97;5019647;28;45483;-79
2022/04/10 05:18:31;;;;;;;;;14.50;10.00;;;;;3.43;71.16;101278.13;5016580;28;45513;-79
2022/04/10 05:20:57;;;;;;;;;13.25;9.75;;;;;3.69;71.37;101286.47;5017129;28;48198;-80
2022/04/10 05:23:22;;;;;;;;;9.25;7.00;;;;;3.84;70.56;101281.56;5018310;28;45507;-79
2022/04/10 05:25:49;;;;;;;;;12.25;11.50;;;;;3.85;70.64;101272.84;5015761;28;45396;-79
2022/04/10 05:28:15;;;;;;;;;6.25;6.25;;;;;4.07;70.09;101283.72;5016501;28;45580;-79
2022/04/10 05:30:41;;;;;;;;;11.00;9.75;;;;;4.45;69.10;101280.88;5015330;28;46109;-79
2022/04/10 05:33:06;;;;;;;;;12.50;12.25;;;;;5.00;67.46;101287.81;5015971;28;45321;-74
2022/04/10 05:35:33;;;;;;;;;7.25;6.75;;;;;5.54;65.59;101280.66;5015447;28;45370;-74
2022/04/10 05:37:58;;;;;;;;;12.50;10.50;;;;;6.11;64.24;101287.41;4997057;28;45480;-77
2022/04/10 05:40:24;;;;;;;;;11.00;11.00;;;;;6.57;63.25;101297.44;4997757;28;46967;-76
2022/04/10 05:42:49;;;;;;;;;15.00;12.50;;;;;7.19;61.18;101304.00;5016121;28;45337;-80
2022/04/10 05:45:15;;;;;;;;;12.25;12.25;;;;;7.78;59.68;101299.00;5020719;28;45470;-79
2022/04/10 05:47:41;;;;;;;;;13.50;8.00;;;;;8.58;57.53;101293.88;5015883;28;45454;-79
2022/04/10 05:50:10;;;;;;;;;12.75;10.00;;;;;9.37;54.47;101301.63;4998802;28;47074;-79
2022/04/10 05:52:45;;;;;;;;;17.50;12.00;;;;;10.05;52.74;101301.28;5015416;28;45394;-80
2022/04/10 05:55:12;;;;;;;;;15.00;12.75;;;;;10.91;50.89;101294.47;5016284;28;45340;-80
2022/04/10 05:57:38;;;;;;;;;15.25;11.00;;;;;11.61;48.76;101300.72;4997969;28;45682;-79
2022/04/10 06:00:07;;;;;;;;;10.50;9.75;;;;;12.30;46.62;101287.41;5014734;28;45416;-80
2022/04/10 06:02:32;;;;;;;;;13.00;11.00;;;;;12.89;45.67;101288.19;4996881;28;45436;-79
2022/04/10 06:04:58;;;;;;;;;17.50;12.75;;;;;13.51;44.67;101302.94;5015262;28;45864;-79
2022/04/10 06:07:24;;;;;;;;;13.00;13.00;;;;;14.12;43.79;101295.41;5014297;28;45708;-80
2022/04/10 06:09:49;;;;;;;;;13.00;13.00;;;;;14.82;41.90;101293.72;5016096;28;45620;-79
2022/04/10 06:12:15;;;;;;;;;13.25;13.00;;;;;15.36;40.21;101297.59;5018089;28;45332;-79
2022/04/10 06:14:40;;;;;;;;;16.25;16.25;;;;;15.83;39.04;101290.00;5022660;28;45305;-80
2022/04/10 06:17:07;;;;;;;;;17.75;14.25;;;;;16.16;38.36;101293.41;5016252;28;45334;-79
2022/04/10 06:19:33;;;;;;;;;21.00;18.00;;;;;16.69;37.40;101291.69;5015038;28;45335;-79
2022/04/10 06:21:59;;;;;;;;;21.00;16.25;;;;;17.15;36.63;101303.44;5015496;28;45457;-79
2022/04/10 06:24:24;;;;;;;;;18.00;17.25;;;;;17.70;36.13;101300.56;5015116;28;45727;-79
2022/04/10 06:26:49;;;;;;;;;20.25;19.50;;;;;18.13;34.68;101303.38;5014584;28;45469;-79
2022/04/10 06:29:15;;;;;;;;;16.50;15.50;;;;;18.35;34.11;101291.78;5015341;28;46168;-80
2022/04/10 06:31:41;;;;;;;;;20.75;17.25;;;;;18.65;33.78;101301.19;5030386;28;45513;-79
2022/04/10 06:34:06;;;;;;;;;25.25;23.25;;;;;18.96;33.00;101291.91;5015075;28;45462;-80
2022/04/10 06:36:32;;;;;;;;;21.75;18.50;;;;;19.20;33.00;101291.72;5014830;28;45404;-80
2022/04/10 06:38:57;;;;;;;;;21.50;20.25;;;;;19.39;32.44;101294.47;5015125;28;45500;-79
2022/04/10 06:41:22;;;;;;;;;18.50;18.25;;;;;19.52;32.24;101287.59;5015626;28;45487;-79
2022/04/10 06:43:47;;;;;;;;;22.25;20.75;;;;;19.61;31.78;101297.00;5018473;28;47233;-80
2022/04/10 06:46:13;;;;;;;;;26.25;22.75;;;;;19.74;31.04;101293.75;5021772;28;45579;-80
2022/04/10 06:48:39;;;;;;;;;22.25;21.25;;;;;19.87;31.00;101285.09;5026507;28;45431;-80
2022/04/10 06:51:05;;;;;;;;;24.75;21.75;;;;;20.02;31.13;101290.66;5017583;28;45305;-80
2022/04/10 06:53:30;;;;;;;;;23.25;19.75;;;;;20.12;30.55;101285.72;5015397;28;45350;-80
2022/04/10 06:55:56;;;;;;;;;21.00;17.50;;;;;20.34;30.87;101288.22;5015282;28;45314;-79
2022/04/10 06:58:22;;;;;;;;;25.00;22.00;;;;;20.18;30.29;101288.97;5015034;28;45401;-80
2022/04/10 07:00:53;;;;;;;;;22.50;22.50;;;;;20.49;30.52;101290.13;5015869;28;45338;-80
2022/04/10 07:03:19;;;;;;;;;19.00;19.00;;;;;20.69;30.06;101288.28;4997052;28;45449;-80
2022/04/10 07:05:45;;;;;;;;;23.00;19.00;;;;;21.09;29.34;101289.75;5014811;28;45574;-79
2022/04/10 07:08:10;;;;;;;;;22.50;19.75;;;;;21.50;29.23;101284.94;5014380;28;45975;-80
2022/04/10 07:10:39;;;;;;;;;24.50;19.75;;;;;21.98;28.14;101286.72;5018227;28;46319;-79
2022/04/10 07:13:04;;;;;;;;;25.50;22.50;;;;;22.34;28.12;101282.03;5019224;28;45500;-78
2022/04/10 07:15:30;;;;;;;;;25.75;20.25;;;;;22.52;26.89;101280.97;5018773;28;45535;-76
2022/04/10 07:17:56;;;;;;;;;17.25;16.75;;;;;22.87;26.79;101288.75;5014209;28;45492;-76
2022/04/10 07:20:23;;;;;;;;;18.00;15.50;;;;;23.03;25.90;101272.53;5013893;28;45487;-77
2022/04/10 07:25:32;;;;;;;;;13.00;13.00;;;;;23.19;24.51;101280.56;5013950;28;45526;-76
2022/04/10 07:27:58;;;;;;;;;15.25;14.25;;;;;23.11;24.78;101274.78;5014051;28;45621;-79
2022/04/10 07:30:23;;;;;;;;;17.00;15.75;;;;;23.57;25.17;101282.66;5013974;28;45491;-80
2022/04/10 07:32:53;;;;;;;;;17.75;17.00;;;;;23.75;24.59;101285.16;5014517;28;45395;-80
2022/04/10 07:35:19;;;;;;;;;16.75;16.00;;;;;23.85;24.81;101280.06;5014274;28;45523;-80
2022/04/10 07:37:46;;;;;;;;;13.25;13.00;;;;;24.00;24.09;101284.44;4995775;28;48458;-80
2022/04/10 07:40:12;;;;;;;;;1.75;0.00;;;;;24.01;23.79;101286.19;5014353;28;45400;-80
2022/04/10 07:42:43;;;;;;;;;10.25;10.25;;;;;24.33;24.79;101280.50;5016182;28;45570;-80
2022/04/10 07:45:09;;;;;;;;;4.75;4.75;;;;;24.69;23.41;101281.72;5014160;28;45461;-77
2022/04/10 07:47:35;;;;;;;;;8.75;8.75;;;;;24.54;22.37;101293.53;5015943;28;45413;-76
2022/04/10 07:50:00;;;;;;;;;9.50;8.00;;;;;24.34;22.64;101292.16;5015400;28;45494;-77
2022/04/10 07:52:25;;;;;;;;;9.50;9.25;;;;;24.24;22.56;101294.59;5013310;28;45441;-77
2022/04/10 07:54:54;;;;;;;;;11.00;9.00;;;;;24.37;22.51;101291.94;5013441;28;45574;-76
2022/04/10 07:57:19;;;;;;;;;13.25;13.25;;;;;24.61;23.65;101294.84;5013063;28;46397;-80
2022/04/10 07:59:45;;;;;;;;;6.00;6.00;;;;;24.47;22.62;101282.25;5013846;28;45506;-76
2022/04/10 08:02:11;;;;;;;;;6.75;6.00;;;;;24.47;23.01;101288.50;5013658;28;45550;-80
2022/04/10 08:04:38;;;;;;;;;6.00;5.50;;;;;24.21;21.72;101297.50;5014041;28;45336;-79
2022/04/10 08:07:05;;;;;;;;;9.25;7.75;;;;;24.12;22.83;101288.19;5013573;28;46285;-79
2022/04/10 08:09:30;;;;;;;;;8.75;8.75;;;;;24.05;22.44;101292.25;4997483;28;45515;-79
2022/04/10 08:11:55;;;;;;;;;3.00;3.00;;;;;24.02;22.30;101295.16;4997484;28;45396;-78
2022/04/10 08:14:21;;;;;;;;;2.00;2.00;;;;;23.80;22.53;101287.56;5014203;28;45702;-77
2022/04/10 08:16:46;;;;;;;;;4.75;1.75;;;;;23.75;22.09;101296.81;5015054;28;46159;-80
2022/04/10 08:19:12;;;;;;;;;7.25;4.25;;;;;23.43;22.93;101301.56;5016275;28;45494;-77
2022/04/10 08:21:37;;;;;;;;;1.25;1.25;;;;;23.10;21.94;101300.00;5017531;28;45394;-77
2022/04/10 08:24:03;;;;;;;;;8.00;6.00;;;;;22.79;22.63;101296.44;5016687;28;45454;-80
2022/04/10 08:26:29;;;;;;;;;3.50;2.00;;;;;23.02;22.36;101286.97;5019004;28;45825;-81
2022/04/10 08:28:54;;;;;;;;;7.25;7.25;;;;;22.97;22.50;101288.19;5017968;28;45453;-79
2022/04/10 08:31:19;;;;;;;;;4.50;4.50;;;;;22.65;23.05;101304.47;5017365;28;45437;-81
2022/04/10 08:33:45;;;;;;;;;10.00;9.00;;;;;22.16;23.86;101309.03;5017314;28;45674;-79
2022/04/10 08:36:10;;;;;;;;;5.50;5.50;;;;;22.13;24.22;101298.44;5019711;28;45257;-80
2022/04/10 08:38:35;;;;;;;;;6.25;5.50;;;;;22.49;24.75;101294.59;5023564;28;45304;-80
2022/04/10 08:41:02;;;;;;;;;5.50;5.00;;;;;22.72;23.73;101303.16;5021887;28;45356;-80
2022/04/10 08:43:28;;;;;;;;;8.00;8.00;;;;;22.97;22.89;101298.97;5021513;28;45514;-80
2022/04/10 08:45:57;;;;;;;;;8.75;7.75;;;;;22.46;23.44;101299.31;5018387;28;45490;-79
2022/04/10 08:48:26;;;;;;;;;10.00;8.00;;;;;22.62;23.25;101300.13;5022984;28;45430;-80
2022/04/10 08:50:56;;;;;;;;;6.00;6.00;;;;;22.85;24.31;101304.16;5018471;28;45389;-79
2022/04/10 08:53:23;;;;;;;;;4.75;4.75;;;;;23.11;23.99;101306.25;5017660;28;45444;-79
2022/04/10 08:55:49;;;;;;;;;10.75;9.00;;;;;23.41;23.44;101290.00;5018848;28;45568;-80
2022/04/10 08:58:15;;;;;;;;;10.00;5.00;;;;;23.92;23.50;101286.78;5000177;28;45424;-80
2022/04/10 09:00:44;;;;;;;;;7.00;7.00;;;;;23.92;22.87;101286.78;5018962;28;45289;-81
2022/04/10 09:03:10;;;;;;;;;9.00;9.00;;;;;24.15;22.80;101296.06;5018512;28;45530;-80
2022/04/10 09:05:36;;;;;;;;;6.00;6.00;;;;;24.19;22.71;101288.66;5019026;28;46241;-80
2022/04/10 09:08:17;;;;;;;;;5.25;3.50;;;;;23.64;22.50;101304.75;5016232;28;45435;-77
2022/04/10 09:10:58;;;;;;;;;9.25;7.00;;;;;23.49;23.43;101300.28;5015943;28;45475;-77
2022/04/10 09:13:32;;;;;;;;;6.25;3.00;;;;;23.45;23.12;101294.22;5015768;28;45388;-77
2022/04/10 09:16:06;;;;;;;;;4.00;2.50;;;;;23.88;23.10;101299.63;5015739;28;46036;-77
2022/04/10 09:18:55;;;;;;;;;3.00;3.00;;;;;24.02;23.59;101295.16;5016356;28;45488;-76
2022/04/10 09:21:25;;;;;;;;;3.00;1.00;;;;;24.05;22.26;101294.94;5017700;28;45503;-80
2022/04/10 09:24:12;;;;;;;;;2.50;2.50;;;;;24.18;21.92;101303.13;5016241;28;45412;-81
2022/04/10 09:26:57;;;;;;;;;2.00;2.00;;;;;24.24;22.55;101291.91;5016071;28;47906;-80
2022/04/10 09:29:24;;;;;;;;;4.00;2.50;;;;;24.05;22.70;101297.63;5015791;28;45621;-80
2022/04/10 09:31:51;;;;;;;;;3.25;3.25;;;;;23.90;23.41;101292.28;5016081;28;45247;-81
2022/04/10 09:34:21;;;;;;;;;0.00;0.00;;;;;24.28;23.38;101286.19;5018532;28;45368;-80
2022/04/10 09:36:58;;;;;;;;;2.00;1.25;;;;;24.47;21.99;101287.66;4997815;28;46436;-81
2022/04/10 09:39:34;;;;;;;;;2.00;2.00;;;;;23.80;22.25;101287.56;4997873;28;45451;-77
2022/04/10 09:42:10;;;;;;;;;2.25;1.00;;;;;23.35;22.92;101303.84;4997655;28;45357;-78
2022/04/10 09:44:37;;;;;;;;;1.00;1.00;;;;;23.29;23.67;101302.44;4997876;28;45354;-78
2022/04/10 09:47:10;;;;;;;;;2.25;2.25;;;;;23.80;22.50;101288.41;5015531;28;45422;-77
2022/04/10 09:49:37;;;;;;;;;2.00;2.00;;;;;24.08;22.67;101286.63;5018030;28;45334;-77
2022/04/10 09:52:10;;;;;;;;;2.25;2.25;;;;;24.40;21.22;101291.72;5017203;28;45524;-77
2022/04/10 09:54:35;;;;;;;;;3.00;1.00;;;;;24.05;21.51;101297.63;5015281;28;45396;-77
2022/04/10 09:57:05;;;;;;;;;2.00;1.25;;;;;23.87;21.50;101287.09;5015432;28;46550;-77
2022/04/10 09:59:37;;;;;;;;;2.00;2.00;;;;;23.82;22.17;101286.47;4998027;28;45700;-77
2022/04/10 10:02:06;;;;;;;;;5.00;1.75;;;;;24.05;23.05;101287.72;5016218;28;45363;-77
2022/04/10 10:04:35;;;;;;;;;7.25;3.00;;;;;24.52;21.93;101277.44;5015309;28;45501;-77
2022/04/10 10:07:19;;;;;;;;;7.50;5.00;;;;;24.83;21.58;101278.03;5014656;28;45373;-76
2022/04/10 10:09:48;;;;;;;;;3.00;3.00;;;;;24.51;20.98;101277.53;5015473;28;45522;-77
2022/04/10 10:12:15;;;;;;;;;2.75;2.75;;;;;24.53;21.91;101275.59;5015386;28;45361;-81
2022/04/10 10:14:42;;;;;;;;;5.50;5.00;;;;;24.62;21.11;101278.53;5015961;28;45511;-79
2022/04/10 10:17:08;;;;;;;;;3.75;2.00;;;;;24.69;21.52;101272.72;4998229;28;45438;-80
2022/04/10 10:19:38;;;;;;;;;2.25;2.00;;;;;24.64;21.61;101254.13;4998380;28;45560;-76
2022/04/10 10:22:10;;;;;;;;;5.00;1.00;;;;;24.44;21.86;101260.84;4997493;28;45380;-77
2022/04/10 10:24:48;;;;;;;;;5.75;4.50;;;;;24.24;21.52;101265.75;5016308;28;45362;-80
2022/04/10 10:27:48;;;;;;;;;5.00;3.25;;;;;24.42;21.68;101254.69;5031445;28;45578;-77
2022/04/10 10:30:44;;;;;;;;;5.00;3.00;;;;;24.57;22.25;101256.34;4998035;28;45415;-76
2022/04/10 10:33:12;;;;;;;;;4.00;4.00;;;;;24.81;21.50;101261.09;4994015;28;45514;-80
2022/04/10 10:35:42;;;;;;;;;3.50;3.50;;;;;24.69;21.15;101256.50;5015253;28;45567;-81
2022/04/10 10:38:22;;;;;;;;;4.00;3.00;;;;;24.62;21.08;101248.81;5014272;28;46294;-80
2022/04/10 10:40:51;;;;;;;;;5.00;5.00;;;;;24.64;21.95;101246.00;5015276;28;45547;-78
2022/04/10 10:43:23;;;;;;;;;1.75;1.75;;;;;25.01;20.72;101260.53;5014365;28;45400;-78
2022/04/10 10:45:50;;;;;;;;;3.50;1.50;;;;;24.63;21.48;101260.50;5015155;28;45539;-81
2022/04/10 10:48:31;;;;;;;;;2.00;1.00;;;;;24.82;20.50;101260.97;5015400;28;45991;-80
2022/04/10 10:51:22;;;;;;;;;2.00;1.00;;;;;25.01;20.80;101249.72;5016423;28;45309;-77
2022/04/10 10:53:57;;;;;;;;;3.00;1.00;;;;;25.19;19.82;101249.41;5009200;28;45439;-77
2022/04/10 10:56:35;;;;;;;;;2.50;2.50;;;;;25.33;20.83;101248.44;5017583;28;45407;-80
2022/04/10 10:59:22;;;;;;;;;2.50;2.00;;;;;25.53;20.54;101247.00;5015697;28;46133;-80
2022/04/10 11:02:12;;;;;;;;;4.50;2.50;;;;;25.21;19.78;101242.03;5015703;28;45509;-79
2022/04/10 11:04:41;;;;;;;;;2.00;1.50;;;;;25.08;21.50;101238.47;5015729;28;45462;-80
2022/04/10 11:07:14;;;;;;;;;2.00;2.00;;;;;25.35;20.60;101238.38;5014245;28;45333;-81
2022/04/10 11:09:51;;;;;;;;;2.00;2.00;;;;;24.82;19.36;101238.47;5014507;28;45412;-81
2022/04/10 11:12:21;;;;;;;;;1.00;1.00;;;;;24.76;20.62;101233.50;5015070;28;45463;-80
2022/04/10 11:14:50;;;;;;;;;2.00;2.00;;;;;24.96;19.66;101219.47;5013756;28;45348;-80
2022/04/10 11:17:27;;;;;;;;;2.75;1.00;;;;;25.01;19.69;101217.28;5014963;28;45400;-80
2022/04/10 11:20:07;;;;;;;;;1.75;1.75;;;;;25.02;20.27;101218.13;5014934;28;46346;-80
2022/04/10 11:22:39;;;;;;;;;3.00;3.00;;;;;24.26;20.11;101209.84;5021210;28;45412;-81
2022/04/10 11:25:07;;;;;;;;;1.00;1.00;;;;;24.19;21.39;101208.50;5019805;28;45413;-80
2022/04/10 11:27:44;;;;;;;;;2.00;2.00;;;;;23.63;20.93;101221.22;4996849;28;45361;-80
2022/04/10 11:30:12;;;;;;;;;5.00;3.00;;;;;23.68;22.25;101219.91;4996027;28;47245;-79